createdAt,value
2018-09-08T00:00:14.341Z,15.24
2018-09-08T00:01:14.330Z,15.09
2018-09-08T00:02:14.348Z,15.06
2018-09-08T00:03:14.328Z,15.08
2018-09-08T00:04:14.324Z,15.08
2018-09-08T00:05:14.324Z,15.12
2018-09-08T00:06:14.321Z,15.09
2018-09-08T00:07:14.312Z,15.05
2018-09-08T00:08:14.308Z,15.05
2018-09-08T00:09:14.346Z,15.03
2018-09-08T00:10:14.304Z,15.03
2018-09-08T00:11:14.300Z,15.01
2018-09-08T00:12:14.310Z,14.91
2018-09-08T00:13:14.292Z,14.90
2018-09-08T00:14:14.290Z,14.88
2018-09-08T00:15:14.285Z,14.90
2018-09-08T00:16:14.282Z,14.87
2018-09-08T00:17:14.280Z,14.84
2018-09-08T00:18:14.276Z,14.87
2018-09-08T00:19:14.271Z,14.88
2018-09-08T00:20:14.267Z,14.86
2018-09-08T00:21:14.265Z,14.90
2018-09-08T00:22:14.263Z,14.81
2018-09-08T00:23:14.256Z,14.81
2018-09-08T00:24:14.257Z,14.78
2018-09-08T00:25:14.285Z,14.84
2018-09-08T00:26:14.245Z,14.75
2018-09-08T00:27:14.271Z,14.80
2018-09-08T00:28:14.244Z,14.67
2018-09-08T00:29:14.229Z,14.67
2018-09-08T00:30:14.232Z,14.68
2018-09-08T00:31:14.259Z,14.65
2018-09-08T00:32:14.225Z,14.67
2018-09-08T00:33:14.218Z,14.52
2018-09-08T00:34:14.221Z,14.53
2018-09-08T00:35:14.212Z,14.46
2018-09-08T00:36:14.208Z,14.37
2018-09-08T00:37:14.199Z,14.29
2018-09-08T00:38:14.203Z,14.35
2018-09-08T00:39:14.236Z,14.28
2018-09-08T00:40:14.201Z,14.29
2018-09-08T00:41:14.212Z,14.20
2018-09-08T00:42:14.199Z,14.19
2018-09-08T00:43:14.191Z,14.25
2018-09-08T00:44:14.202Z,14.27
2018-09-08T00:45:14.171Z,14.24
2018-09-08T00:46:14.173Z,14.13
2018-09-08T00:47:14.174Z,14.17
2018-09-08T00:48:14.165Z,14.25
2018-09-08T00:49:14.161Z,14.20
2018-09-08T00:50:14.155Z,14.20
2018-09-08T00:51:14.154Z,14.14
2018-09-08T00:52:14.148Z,14.17
2018-09-08T00:53:14.161Z,14.14
2018-09-08T00:54:14.144Z,14.19
2018-09-08T00:55:14.186Z,14.14
2018-09-08T00:56:14.132Z,14.17
2018-09-08T00:57:14.149Z,14.16
2018-09-08T00:58:14.126Z,14.17
2018-09-08T00:59:14.127Z,14.19
2018-09-08T01:00:14.119Z,14.13
2018-09-08T01:01:14.128Z,14.14
2018-09-08T01:02:14.135Z,14.17
2018-09-08T01:03:14.105Z,14.27
2018-09-08T01:04:14.103Z,14.16
2018-09-08T01:05:14.102Z,14.13
2018-09-08T01:06:14.094Z,14.14
2018-09-08T01:07:14.091Z,14.14
2018-09-08T01:08:14.089Z,14.17
2018-09-08T01:09:14.123Z,14.19
2018-09-08T01:10:14.080Z,14.17
2018-09-08T01:11:14.073Z,14.27
2018-09-08T01:12:14.106Z,14.21
2018-09-08T01:13:14.066Z,14.27
2018-09-08T01:14:14.070Z,14.31
2018-09-08T01:15:14.057Z,14.27
2018-09-08T01:16:14.059Z,14.37
2018-09-08T01:17:14.056Z,14.43
2018-09-08T01:18:14.047Z,14.44
2018-09-08T01:19:14.041Z,14.43
2018-09-08T01:20:14.039Z,14.46
2018-09-08T01:21:14.041Z,14.50
2018-09-08T01:22:14.031Z,14.47
2018-09-08T01:23:14.031Z,14.49
2018-09-08T01:24:14.025Z,14.46
2018-09-08T01:25:14.084Z,14.60
2018-09-08T01:26:14.016Z,14.56
2018-09-08T01:27:14.037Z,14.56
2018-09-08T01:28:14.029Z,14.56
2018-09-08T01:29:14.004Z,14.60
2018-09-08T01:30:14.001Z,14.52
2018-09-08T02:07:10.738Z,14.12
2018-09-08T02:08:10.735Z,14.09
2018-09-08T02:10:03.597Z,14.12
2018-09-08T02:11:03.572Z,14.07
2018-09-08T02:12:56.494Z,14.07
2018-09-08T02:13:56.470Z,14.09
2018-09-08T02:15:49.423Z,14.17
2018-09-08T02:16:49.390Z,14.12
2018-09-08T02:18:42.290Z,14.10
2018-09-08T02:19:42.275Z,14.16
2018-09-08T02:21:35.231Z,14.16
2018-09-08T02:22:35.235Z,14.13
2018-09-08T02:24:28.101Z,14.20
2018-09-08T02:25:28.182Z,14.09
2018-09-08T02:27:21.031Z,13.98
2018-09-08T02:28:21.007Z,14.01
2018-09-08T02:30:13.904Z,13.87
2018-09-08T02:31:13.943Z,13.81
2018-09-08T02:33:06.843Z,13.89
2018-09-08T02:34:06.814Z,13.77
2018-09-08T02:35:59.715Z,13.77
2018-09-08T02:36:59.699Z,13.71
2018-09-08T02:37:59.690Z,13.81
2018-09-08T02:38:59.689Z,13.80
2018-09-08T02:39:59.682Z,13.67
2018-09-08T02:40:59.677Z,13.80
2018-09-08T02:41:59.751Z,13.73
2018-09-08T02:42:59.670Z,13.76
2018-09-08T02:43:59.666Z,13.67
2018-09-08T02:44:59.662Z,13.74
2018-09-08T02:45:59.688Z,13.76
2018-09-08T02:46:59.654Z,13.61
2018-09-08T02:47:59.653Z,13.61
2018-09-08T02:48:59.649Z,13.55
2018-09-08T02:49:59.643Z,13.58
2018-09-08T02:50:59.638Z,13.46
2018-09-08T02:51:59.634Z,13.55
2018-09-08T02:52:59.631Z,13.59
2018-09-08T02:53:59.629Z,13.47
2018-09-08T02:54:59.624Z,13.49
2018-09-08T02:55:59.618Z,13.52
2018-09-08T02:56:59.634Z,13.43
2018-09-08T02:57:59.611Z,13.27
2018-09-08T02:58:59.607Z,13.32
2018-09-08T02:59:59.604Z,13.40
2018-09-08T03:00:59.678Z,13.22
2018-09-08T03:01:59.673Z,13.33
2018-09-08T03:02:59.592Z,13.29
2018-09-08T03:03:59.589Z,13.20
2018-09-08T03:04:59.587Z,13.22
2018-09-08T03:05:59.579Z,13.20
2018-09-08T03:06:59.577Z,13.20
2018-09-08T03:07:59.580Z,13.12
2018-09-08T03:08:59.576Z,13.17
2018-09-08T03:09:59.566Z,13.14
2018-09-08T03:10:59.559Z,12.93
2018-09-08T03:11:59.568Z,13.09
2018-09-08T03:12:59.555Z,13.11
2018-09-08T03:13:59.546Z,12.97
2018-09-08T03:14:59.545Z,12.87
2018-09-08T03:15:59.540Z,12.96
2018-09-08T03:16:59.538Z,12.97
2018-09-08T03:17:59.529Z,12.99
2018-09-08T03:18:59.528Z,13.02
2018-09-08T03:19:59.524Z,12.95
2018-09-08T03:20:59.520Z,13.07
2018-09-08T03:21:59.528Z,13.09
2018-09-08T03:22:59.510Z,13.14
2018-09-08T03:23:59.508Z,13.12
2018-09-08T03:24:59.558Z,13.09
2018-09-08T03:25:59.498Z,13.17
2018-09-08T03:26:59.495Z,13.22
2018-09-08T03:27:59.539Z,13.30
2018-09-08T03:28:59.486Z,13.29
2018-09-08T03:29:59.482Z,13.29
2018-09-08T03:30:59.477Z,13.46
2018-09-08T03:31:59.477Z,13.46
2018-09-08T03:32:59.473Z,13.46
2018-09-08T03:33:59.467Z,13.51
2018-09-08T03:34:59.460Z,13.59
2018-09-08T03:35:59.460Z,13.62
2018-09-08T03:36:59.454Z,13.63
2018-09-08T03:37:59.451Z,13.73
2018-09-08T03:38:59.512Z,13.73
2018-09-08T03:39:59.439Z,13.67
2018-09-08T03:40:59.438Z,13.67
2018-09-08T03:41:59.448Z,13.63
2018-09-08T03:42:59.431Z,13.59
2018-09-08T03:43:59.426Z,13.56
2018-09-08T03:44:59.433Z,13.61
2018-09-08T03:45:59.419Z,13.61
2018-09-08T03:46:59.416Z,13.59
2018-09-08T03:47:59.410Z,13.59
2018-09-08T03:48:59.415Z,13.65
2018-09-08T03:49:59.404Z,13.62
2018-09-08T03:50:59.390Z,13.65
2018-09-08T03:51:59.398Z,13.73
2018-09-08T03:52:59.392Z,13.63
2018-09-08T03:53:59.408Z,13.69
2018-09-08T03:54:59.385Z,13.77
2018-09-08T03:55:59.382Z,13.84
2018-09-08T03:56:59.376Z,13.80
2018-09-08T03:57:59.436Z,13.81
2018-09-08T03:58:59.379Z,13.80
2018-09-08T03:59:59.385Z,13.76
2018-09-08T04:00:59.375Z,13.92
2018-09-08T04:01:59.358Z,13.80
2018-09-08T04:02:59.352Z,13.76
2018-09-08T04:03:59.350Z,13.80
2018-09-08T04:04:59.342Z,13.83
2018-09-08T04:05:59.340Z,13.87
2018-09-08T04:06:59.336Z,13.83
2018-09-08T04:07:59.335Z,13.88
2018-09-08T04:08:59.336Z,13.89
2018-09-08T04:09:59.326Z,13.92
2018-09-08T04:10:59.329Z,13.88
2018-09-08T04:11:59.341Z,13.84
2018-09-08T04:12:59.314Z,13.76
2018-09-08T04:13:59.312Z,13.81
2018-09-08T04:14:59.344Z,13.84
2018-09-08T04:15:59.303Z,13.81
2018-09-08T04:16:59.334Z,13.83
2018-09-08T04:17:59.306Z,13.81
2018-09-08T04:18:59.289Z,13.84
2018-09-08T04:19:59.290Z,13.80
2018-09-08T04:20:59.288Z,13.74
2018-09-08T04:21:59.281Z,13.83
2018-09-08T04:22:59.279Z,13.81
2018-09-08T04:23:59.278Z,13.74
2018-09-08T04:24:59.274Z,13.83
2018-09-08T04:25:59.269Z,13.77
2018-09-08T04:26:59.320Z,13.77
2018-09-08T04:27:59.260Z,13.71
2018-09-08T04:28:59.257Z,13.69
2018-09-08T04:29:59.259Z,13.63
2018-09-08T04:30:59.254Z,13.61
2018-09-08T04:31:59.244Z,13.51
2018-09-08T04:32:59.239Z,13.51
2018-09-08T04:33:59.236Z,13.41
2018-09-08T04:34:59.230Z,13.40
2018-09-08T04:35:59.288Z,13.37
2018-09-08T04:36:59.224Z,13.43
2018-09-08T04:37:59.223Z,13.24
2018-09-08T04:38:59.221Z,13.25
2018-09-08T04:39:59.213Z,13.29
2018-09-08T04:40:59.208Z,13.30
2018-09-08T04:41:59.212Z,13.29
2018-09-08T04:42:59.199Z,13.29
2018-09-08T04:43:59.199Z,13.32
2018-09-08T04:44:59.194Z,13.22
2018-09-08T04:45:59.193Z,13.24
2018-09-08T04:46:59.187Z,13.18
2018-09-08T04:47:59.184Z,13.12
2018-09-08T04:48:59.177Z,13.21
2018-09-08T04:49:59.164Z,13.11
2018-09-08T04:50:59.168Z,13.17
2018-09-08T04:51:59.174Z,13.14
2018-09-08T04:52:59.163Z,13.15
2018-09-08T04:53:59.157Z,13.14
2018-09-08T04:54:59.152Z,13.17
2018-09-08T04:55:59.149Z,13.09
2018-09-08T04:56:59.173Z,13.17
2018-09-08T04:57:59.218Z,13.18
2018-09-08T04:58:59.135Z,13.03
2018-09-08T04:59:59.141Z,13.03
2018-09-08T05:00:59.147Z,13.15
2018-09-08T05:01:59.125Z,13.15
2018-09-08T05:02:59.123Z,13.11
2018-09-08T05:03:59.117Z,13.04
2018-09-08T05:04:59.113Z,13.06
2018-09-08T05:05:59.113Z,13.14
2018-09-08T05:06:59.106Z,13.11
2018-09-08T05:07:59.104Z,13.17
2018-09-08T05:08:59.133Z,13.11
2018-09-08T05:09:59.094Z,13.02
2018-09-08T05:10:59.107Z,13.09
2018-09-08T05:11:59.085Z,13.00
2018-09-08T05:12:59.081Z,13.02
2018-09-08T05:13:59.126Z,12.97
2018-09-08T05:14:59.073Z,12.97
2018-09-08T05:15:59.073Z,12.99
2018-09-08T05:16:59.073Z,13.12
2018-09-08T05:17:59.063Z,13.00
2018-09-08T05:18:59.058Z,13.04
2018-09-08T05:19:59.049Z,13.04
2018-09-08T05:20:59.052Z,13.06
2018-09-08T05:21:59.046Z,13.11
2018-09-08T05:22:59.041Z,13.07
2018-09-08T05:23:59.038Z,13.17
2018-09-08T05:24:59.037Z,13.06
2018-09-08T05:25:59.028Z,13.18
2018-09-08T05:26:59.058Z,13.18
2018-09-08T05:27:59.021Z,13.22
2018-09-08T05:28:59.017Z,13.33
2018-09-08T05:29:59.008Z,13.36
2018-09-08T05:30:59.009Z,13.25
2018-09-08T05:31:59.003Z,13.51
2018-09-08T05:32:59.002Z,13.54
2018-09-08T05:33:58.998Z,13.58
2018-09-08T05:34:59.054Z,13.58
2018-09-08T05:35:58.989Z,13.61
2018-09-08T05:36:59.076Z,13.63
2018-09-08T05:37:58.980Z,13.77
2018-09-08T05:38:58.977Z,13.77
2018-09-08T05:39:58.975Z,13.88
2018-09-08T05:40:58.973Z,13.88
2018-09-08T05:41:59.009Z,13.96
2018-09-08T05:42:58.992Z,13.99
2018-09-08T05:43:58.959Z,14.12
2018-09-08T05:44:58.954Z,14.12
2018-09-08T05:45:58.951Z,14.19
2018-09-08T05:46:58.953Z,14.21
2018-09-08T05:47:58.946Z,14.19
2018-09-08T05:48:59.012Z,14.37
2018-09-08T05:49:58.937Z,14.34
2018-09-08T05:50:58.935Z,14.39
2018-09-08T05:51:58.930Z,14.56
2018-09-08T05:52:58.929Z,14.54
2018-09-08T05:53:58.921Z,14.53
2018-09-08T05:54:58.925Z,14.46
2018-09-08T05:55:58.919Z,14.56
2018-09-08T05:56:58.921Z,14.60
2018-09-08T05:57:59.007Z,14.56
2018-09-08T05:58:58.911Z,14.60
2018-09-08T05:59:58.919Z,14.57
2018-09-08T06:00:58.899Z,14.54
2018-09-08T06:01:58.898Z,14.57
2018-09-08T06:02:58.892Z,14.69
2018-09-08T06:03:58.889Z,14.71
2018-09-08T06:04:58.887Z,14.67
2018-09-08T06:05:58.884Z,14.78
2018-09-08T06:06:58.885Z,14.74
2018-09-08T06:07:58.876Z,14.72
2018-09-08T06:08:58.893Z,14.83
2018-09-08T06:09:58.880Z,14.72
2018-09-08T06:10:58.888Z,14.71
2018-09-08T06:11:58.871Z,14.81
2018-09-08T06:12:58.927Z,14.65
2018-09-08T06:13:58.863Z,14.64
2018-09-08T06:14:58.873Z,14.67
2018-09-08T06:15:58.853Z,14.68
2018-09-08T06:16:58.867Z,14.67
2018-09-08T06:17:58.860Z,14.62
2018-09-08T06:18:58.881Z,14.65
2018-09-08T06:19:58.865Z,14.69
2018-09-08T06:20:58.880Z,14.81
2018-09-08T06:21:58.851Z,14.81
2018-09-08T06:22:58.841Z,14.93
2018-09-08T06:23:58.876Z,15.01
2018-09-08T06:24:58.845Z,14.99
2018-09-08T06:25:58.860Z,15.13
2018-09-08T06:26:58.888Z,15.15
2018-09-08T06:27:58.879Z,15.15
2018-09-08T06:28:58.894Z,15.26
2018-09-08T06:29:58.927Z,15.33
2018-09-08T06:30:58.817Z,15.30
2018-09-08T06:31:58.826Z,15.33
2018-09-08T06:32:58.831Z,15.49
2018-09-08T06:33:58.838Z,15.81
2018-09-08T06:34:58.847Z,15.85
2018-09-08T06:35:58.850Z,15.97
2018-09-08T06:36:58.855Z,15.97
2018-09-08T06:37:58.864Z,16.25
2018-09-08T06:38:58.840Z,16.52
2018-09-08T06:39:58.832Z,16.73
2018-09-08T06:40:58.803Z,16.68
2018-09-08T06:41:58.797Z,16.92
2018-09-08T06:42:58.789Z,17.06
2018-09-08T06:43:58.788Z,16.99
2018-09-08T06:44:58.870Z,16.90
2018-09-08T06:45:58.807Z,17.00
2018-09-08T06:46:58.810Z,17.10
2018-09-08T06:47:58.816Z,17.13
2018-09-08T06:48:58.826Z,17.23
2018-09-08T06:49:58.803Z,17.43
2018-09-08T06:50:58.780Z,17.48
2018-09-08T06:51:58.807Z,17.66
2018-09-08T06:52:58.803Z,17.48
2018-09-08T06:53:58.809Z,17.47
2018-09-08T06:54:58.783Z,17.53
2018-09-08T06:55:58.781Z,17.43
2018-09-08T06:56:58.782Z,17.30
2018-09-08T06:57:58.848Z,16.95
2018-09-08T06:58:58.795Z,17.44
2018-09-08T06:59:58.803Z,17.14
2018-09-08T07:00:58.762Z,17.28
2018-09-08T07:01:58.757Z,17.15
2018-09-08T07:02:58.761Z,17.29
2018-09-08T07:03:58.827Z,17.32
2018-09-08T07:04:59.346Z,17.15
2018-09-08T07:05:58.842Z,17.29
2018-09-08T07:06:58.822Z,17.20
2018-09-08T07:07:58.770Z,17.47
2018-09-08T07:08:58.741Z,17.66
2018-09-08T07:09:58.786Z,17.84
2018-09-08T07:10:58.764Z,18.00
2018-09-08T07:11:58.780Z,17.76
2018-09-08T07:12:58.780Z,17.99
2018-09-08T07:13:58.752Z,18.22
2018-09-08T07:14:58.785Z,18.25
2018-09-08T07:15:58.779Z,18.49
2018-09-08T07:16:58.776Z,18.76
2018-09-08T07:17:59.763Z,19.23
2018-09-08T07:18:59.759Z,18.97
2018-09-08T07:19:59.753Z,18.62
2018-09-08T07:20:58.829Z,18.43
2018-09-08T07:21:58.838Z,18.54
2018-09-08T07:22:58.748Z,18.12
2018-09-08T07:23:58.765Z,17.87
2018-09-08T07:24:58.806Z,17.50
2018-09-08T07:25:58.764Z,17.36
2018-09-08T07:26:58.776Z,17.57
2018-09-08T07:27:58.781Z,17.66
2018-09-08T07:28:58.783Z,17.71
2018-09-08T07:29:58.794Z,17.66
2018-09-08T07:30:58.823Z,18.03
2018-09-08T07:31:58.805Z,18.15
2018-09-08T07:32:58.810Z,18.15
2018-09-08T07:33:58.814Z,18.50
2018-09-08T07:34:58.827Z,18.77
2018-09-08T07:35:58.797Z,18.99
2018-09-08T07:36:58.835Z,18.58
2018-09-08T07:37:58.842Z,18.74
2018-09-08T07:38:58.816Z,19.23
2018-09-08T07:39:58.828Z,19.21
2018-09-08T07:40:58.862Z,19.72
2018-09-08T07:41:58.869Z,19.63
2018-09-08T07:42:58.875Z,19.36
2018-09-08T07:43:58.840Z,19.20
2018-09-08T07:44:58.894Z,19.60
2018-09-08T07:45:58.964Z,19.79
2018-09-08T07:46:58.907Z,19.84
2018-09-08T07:47:58.896Z,19.58
2018-09-08T07:48:58.914Z,19.53
2018-09-08T07:49:58.920Z,19.39
2018-09-08T07:50:58.930Z,19.60
2018-09-08T07:51:58.927Z,19.54
2018-09-08T07:52:58.943Z,19.91
2018-09-08T07:53:58.981Z,20.20
2018-09-08T07:54:58.954Z,19.78
2018-09-08T07:55:58.961Z,19.97
2018-09-08T07:56:58.926Z,19.87
2018-09-08T07:57:58.939Z,20.20
2018-09-08T07:58:58.982Z,20.42
2018-09-08T07:59:58.930Z,20.20
2018-09-08T08:00:59.857Z,20.39
2018-09-08T08:01:58.932Z,20.56
2018-09-08T08:02:58.963Z,20.79
2018-09-08T08:03:58.948Z,20.61
2018-09-08T08:04:58.965Z,21.16
2018-09-08T08:05:58.967Z,21.29
2018-09-08T08:06:58.961Z,21.88
2018-09-08T08:07:58.982Z,21.99
2018-09-08T08:08:59.045Z,21.83
2018-09-08T08:09:59.001Z,21.90
2018-09-08T08:10:59.044Z,21.53
2018-09-08T08:11:59.066Z,22.23
2018-09-08T08:12:59.002Z,21.69
2018-09-08T08:13:59.076Z,21.45
2018-09-08T08:14:59.023Z,21.32
2018-09-08T08:15:59.093Z,22.12
2018-09-08T08:16:59.106Z,22.20
2018-09-08T08:17:59.081Z,22.06
2018-09-08T08:18:59.100Z,21.21
2018-09-08T08:19:59.125Z,21.35
2018-09-08T08:20:59.124Z,21.67
2018-09-08T08:21:59.144Z,22.02
2018-09-08T08:22:59.134Z,21.97
2018-09-08T08:23:59.089Z,22.54
2018-09-08T08:24:59.862Z,21.88
2018-09-08T08:25:59.168Z,21.76
2018-09-08T08:26:59.164Z,22.10
2018-09-08T08:27:59.171Z,22.01
2018-09-08T08:28:59.175Z,22.01
2018-09-08T08:29:59.155Z,22.38
2018-09-08T08:30:59.243Z,22.50
2018-09-08T08:31:59.161Z,22.68
2018-09-08T08:32:59.173Z,21.85
2018-09-08T08:33:59.177Z,21.75
2018-09-08T08:34:59.186Z,21.71
2018-09-08T08:35:59.198Z,21.74
2018-09-08T08:36:59.231Z,22.07
2018-09-08T08:37:59.234Z,21.78
2018-09-08T08:38:59.242Z,21.88
2018-09-08T08:39:59.237Z,21.88
2018-09-08T08:40:59.260Z,22.32
2018-09-08T08:41:59.310Z,22.27
2018-09-08T08:42:59.296Z,22.69
2018-09-08T08:43:59.302Z,22.68
2018-09-08T08:44:59.311Z,22.90
2018-09-08T08:45:59.295Z,23.82
2018-09-08T08:46:59.313Z,23.34
2018-09-08T08:47:59.325Z,23.32
2018-09-08T08:48:59.322Z,23.83
2018-09-08T08:49:59.369Z,23.98
2018-09-08T08:50:59.370Z,24.02
2018-09-08T08:51:59.361Z,23.82
2018-09-08T08:52:59.368Z,23.45
2018-09-08T08:53:59.447Z,23.52
2018-09-08T08:54:59.484Z,23.46
2018-09-08T08:55:59.457Z,23.52
2018-09-08T08:56:59.449Z,23.92
2018-09-08T08:57:59.469Z,22.67
2018-09-08T08:58:59.444Z,22.99
2018-09-08T08:59:59.435Z,23.53
2018-09-08T09:00:59.445Z,24.95
2018-09-08T09:01:59.455Z,25.15
2018-09-08T09:02:59.505Z,25.86
2018-09-08T09:03:59.479Z,24.92
2018-09-08T09:04:59.488Z,24.67
2018-09-08T09:05:59.507Z,25.83
2018-09-08T09:06:59.510Z,26.44
2018-09-08T09:07:59.520Z,25.56
2018-09-08T09:08:59.537Z,24.44
2018-09-08T09:09:59.576Z,23.46
2018-09-08T09:10:59.604Z,23.22
2018-09-08T09:11:59.576Z,23.32
2018-09-08T09:12:59.615Z,23.92
2018-09-08T09:13:59.611Z,24.57
2018-09-08T09:14:59.603Z,25.61
2018-09-08T09:15:59.628Z,25.74
2018-09-08T09:16:59.687Z,25.05
2018-09-08T09:17:59.706Z,25.13
2018-09-08T09:19:00.109Z,25.28
2018-09-08T09:19:59.709Z,24.97
2018-09-08T09:20:59.696Z,25.07
2018-09-08T09:21:59.731Z,25.91
2018-09-08T09:22:59.732Z,26.44
2018-09-08T09:23:59.780Z,25.65
2018-09-08T09:24:59.818Z,24.80
2018-09-08T09:25:59.755Z,24.87
2018-09-08T09:26:59.747Z,25.59
2018-09-08T09:27:59.797Z,24.56
2018-09-08T09:28:59.772Z,24.44
2018-09-08T09:29:59.784Z,25.20
2018-09-08T09:30:59.796Z,24.98
2018-09-08T09:31:59.811Z,24.29
2018-09-08T09:32:59.833Z,24.75
2018-09-08T09:33:59.837Z,23.76
2018-09-08T09:34:59.856Z,21.53
2018-09-08T09:35:59.858Z,22.17
2018-09-08T09:36:59.872Z,22.53
2018-09-08T09:37:59.878Z,23.11
2018-09-08T09:38:59.887Z,24.04
2018-09-08T09:39:59.903Z,25.12
2018-09-08T09:40:59.919Z,25.74
2018-09-08T09:41:59.959Z,26.02
2018-09-08T09:42:59.935Z,26.05
2018-09-08T09:43:59.974Z,25.17
2018-09-08T09:44:59.955Z,25.13
2018-09-08T09:45:59.969Z,25.09
2018-09-08T09:47:00.117Z,25.31
2018-09-08T09:47:59.999Z,25.32
2018-09-08T09:49:00.012Z,26.24
2018-09-08T09:50:00.018Z,26.36
2018-09-08T09:51:00.031Z,26.96
2018-09-08T09:52:00.039Z,27.57
2018-09-08T09:53:00.095Z,27.41
2018-09-08T09:54:00.057Z,27.76
2018-09-08T09:55:00.100Z,27.59
2018-09-08T09:56:00.117Z,27.57
2018-09-08T09:57:00.169Z,27.46
2018-09-08T09:58:00.165Z,27.48
2018-09-08T09:59:00.192Z,27.29
2018-09-08T10:00:00.140Z,28.33
2018-09-08T10:01:00.182Z,28.38
2018-09-08T10:02:00.164Z,28.82
2018-09-08T10:03:00.176Z,29.77
2018-09-08T10:04:00.188Z,29.94
2018-09-08T10:05:00.203Z,29.22
2018-09-08T10:06:00.248Z,29.33
2018-09-08T10:07:00.230Z,29.38
2018-09-08T10:08:00.267Z,29.40
2018-09-08T10:09:00.261Z,30.05
2018-09-08T10:10:00.274Z,29.40
2018-09-08T10:11:00.304Z,29.33
2018-09-08T10:12:00.388Z,27.98
2018-09-08T10:13:00.365Z,28.48
2018-09-08T10:14:00.351Z,28.41
2018-09-08T10:15:00.374Z,28.35
2018-09-08T10:16:00.422Z,28.66
2018-09-08T10:17:00.389Z,29.00
2018-09-08T10:18:00.447Z,29.57
2018-09-08T10:19:00.445Z,29.78
2018-09-08T10:20:00.448Z,29.77
2018-09-08T10:21:00.455Z,28.54
2018-09-08T10:22:00.462Z,28.47
2018-09-08T10:23:00.525Z,29.74
2018-09-08T10:24:05.158Z,31.11
2018-09-08T10:25:00.521Z,31.58
2018-09-08T10:26:00.513Z,30.68
2018-09-08T10:27:00.527Z,30.59
2018-09-08T10:28:00.564Z,30.43
2018-09-08T10:29:00.564Z,30.61
2018-09-08T10:30:00.948Z,30.29
2018-09-08T10:31:00.591Z,31.27
2018-09-08T10:32:00.609Z,31.08
2018-09-08T10:33:00.622Z,29.90
2018-09-08T10:34:00.640Z,29.77
2018-09-08T10:35:00.661Z,30.59
2018-09-08T10:36:00.741Z,31.53
2018-09-08T10:37:00.680Z,31.31
2018-09-08T10:38:00.733Z,31.57
2018-09-08T10:39:00.715Z,32.58
2018-09-08T10:40:00.739Z,32.77
2018-09-08T10:41:00.755Z,31.54
2018-09-08T10:42:00.806Z,31.46
2018-09-08T10:43:00.796Z,30.83
2018-09-08T10:44:00.800Z,31.04
2018-09-08T10:45:00.882Z,30.19
2018-09-08T10:46:00.937Z,29.20
2018-09-08T10:47:00.919Z,29.23
2018-09-08T10:48:00.900Z,29.29
2018-09-08T10:49:00.896Z,28.59
2018-09-08T10:50:00.918Z,27.85
2018-09-08T10:51:01.007Z,28.84
2018-09-08T10:52:00.956Z,29.70
2018-09-08T10:53:00.977Z,29.49
2018-09-08T10:54:00.991Z,30.07
2018-09-08T10:55:00.994Z,30.26
2018-09-08T10:56:01.054Z,30.62
2018-09-08T10:57:01.059Z,28.90
2018-09-08T10:58:01.072Z,28.31
2018-09-08T10:59:01.077Z,28.44
2018-09-08T11:00:01.053Z,27.94
2018-09-08T11:01:01.080Z,27.92
2018-09-08T11:02:01.389Z,27.86
2018-09-08T11:03:01.152Z,28.96
2018-09-08T11:04:01.147Z,29.62
2018-09-08T11:05:01.159Z,29.23
2018-09-08T11:06:01.156Z,29.37
2018-09-08T11:07:01.176Z,29.57
2018-09-08T11:08:01.210Z,30.53
2018-09-08T11:09:01.191Z,30.64
2018-09-08T11:10:01.202Z,30.15
2018-09-08T11:11:01.208Z,29.47
2018-09-08T11:12:01.261Z,29.34
2018-09-08T11:13:01.248Z,29.28
2018-09-08T11:14:01.260Z,29.82
2018-09-08T11:15:01.299Z,30.40
2018-09-08T11:16:01.359Z,29.26
2018-09-08T11:17:01.331Z,28.54
2018-09-08T11:18:01.337Z,28.54
2018-09-08T11:19:01.339Z,29.26
2018-09-08T11:20:01.351Z,28.03
2018-09-08T11:21:01.362Z,28.21
2018-09-08T11:22:01.381Z,29.06
2018-09-08T11:23:01.394Z,29.10
2018-09-08T11:24:01.432Z,29.23
2018-09-08T11:25:01.422Z,29.62
2018-09-08T11:26:01.456Z,29.26
2018-09-08T11:27:01.462Z,30.02
2018-09-08T11:28:01.467Z,29.20
2018-09-08T11:29:01.522Z,28.88
2018-09-08T11:30:01.485Z,29.01
2018-09-08T11:31:01.521Z,29.06
2018-09-08T11:32:01.523Z,29.06
2018-09-08T11:33:01.547Z,30.08
2018-09-08T11:34:01.553Z,29.79
2018-09-08T11:35:01.568Z,30.45
2018-09-08T11:36:01.585Z,29.82
2018-09-08T11:37:01.598Z,29.72
2018-09-08T11:38:01.634Z,29.84
2018-09-08T11:39:01.626Z,30.64
2018-09-08T11:40:01.645Z,31.55
2018-09-08T11:41:01.679Z,31.88
2018-09-08T11:42:01.670Z,32.61
2018-09-08T11:43:01.685Z,33.30
2018-09-08T11:44:01.727Z,32.49
2018-09-08T11:45:01.714Z,32.86
2018-09-08T11:46:01.729Z,33.36
2018-09-08T11:47:01.745Z,33.49
2018-09-08T11:48:01.761Z,32.52
2018-09-08T11:49:01.777Z,33.14
2018-09-08T11:50:01.789Z,32.85
2018-09-08T11:51:01.804Z,33.45
2018-09-08T11:52:01.823Z,33.07
2018-09-08T11:53:01.918Z,32.73
2018-09-08T11:54:01.850Z,29.38
2018-09-08T11:55:01.866Z,28.56
2018-09-08T11:56:01.914Z,28.66
2018-09-08T11:57:01.896Z,28.51
2018-09-08T11:58:01.923Z,28.97
2018-09-08T11:59:01.927Z,28.82
2018-09-08T12:00:01.948Z,29.18
2018-09-08T12:01:01.962Z,28.72
2018-09-08T12:02:02.016Z,28.03
2018-09-08T12:03:02.055Z,28.04
2018-09-08T12:04:02.003Z,28.59
2018-09-08T12:05:02.015Z,29.72
2018-09-08T12:06:02.031Z,29.49
2018-09-08T12:07:02.044Z,28.60
2018-09-08T12:08:02.108Z,28.90
2018-09-08T12:09:02.072Z,29.89
2018-09-08T12:10:02.085Z,30.16
2018-09-08T12:11:02.128Z,30.29
2018-09-08T12:12:02.113Z,29.22
2018-09-08T12:13:02.176Z,28.44
2018-09-08T12:14:02.185Z,27.23
2018-09-08T12:15:02.153Z,26.24
2018-09-08T12:16:02.179Z,25.65
2018-09-08T12:17:02.187Z,25.25
2018-09-08T12:18:02.194Z,25.44
2018-09-08T12:19:02.230Z,25.27
2018-09-08T12:20:02.228Z,24.77
2018-09-08T12:21:02.239Z,24.27
2018-09-08T12:22:02.283Z,23.89
2018-09-08T12:23:02.262Z,24.00
2018-09-08T12:24:02.305Z,23.61
2018-09-08T12:25:02.283Z,23.67
2018-09-08T12:26:02.287Z,23.75
2018-09-08T12:27:02.301Z,23.82
2018-09-08T12:28:02.301Z,23.52
2018-09-08T12:29:02.335Z,23.79
2018-09-08T12:30:02.319Z,24.05
2018-09-08T12:31:02.419Z,24.32
2018-09-08T12:32:02.334Z,24.14
2018-09-08T12:33:02.343Z,23.83
2018-09-08T12:34:02.348Z,23.82
2018-09-08T12:35:02.354Z,23.75
2018-09-08T12:36:02.363Z,23.85
2018-09-08T12:37:02.392Z,23.58
2018-09-08T12:38:02.376Z,23.72
2018-09-08T12:39:02.376Z,23.67
2018-09-08T12:40:02.383Z,23.61
2018-09-08T12:41:02.392Z,23.46
2018-09-08T12:42:02.419Z,23.40
2018-09-08T12:43:02.400Z,23.11
2018-09-08T12:44:02.409Z,23.35
2018-09-08T12:45:02.411Z,23.07
2018-09-08T12:46:02.410Z,23.02
2018-09-08T12:47:02.420Z,22.97
2018-09-08T12:48:02.421Z,23.15
2018-09-08T12:49:02.421Z,23.34
2018-09-08T12:50:02.434Z,23.49
2018-09-08T12:51:02.429Z,23.34
2018-09-08T12:52:02.433Z,23.15
2018-09-08T12:53:02.445Z,23.15
2018-09-08T12:54:02.447Z,23.14
2018-09-08T12:55:02.441Z,23.27
2018-09-08T12:56:02.517Z,23.14
2018-09-08T12:57:02.455Z,22.86
2018-09-08T12:58:02.452Z,22.99
2018-09-08T12:59:02.521Z,23.22
2018-09-08T13:00:02.456Z,23.23
2018-09-08T13:01:02.470Z,23.43
2018-09-08T13:02:02.460Z,23.27
2018-09-08T13:03:02.462Z,23.35
2018-09-08T13:04:02.465Z,23.50
2018-09-08T13:05:02.466Z,23.49
2018-09-08T13:06:02.491Z,23.40
2018-09-08T13:07:02.521Z,23.39
2018-09-08T13:08:02.475Z,23.35
2018-09-08T13:09:02.482Z,23.02
2018-09-08T13:10:02.483Z,22.99
2018-09-08T13:11:02.487Z,22.86
2018-09-08T13:12:02.500Z,23.01
2018-09-08T13:13:02.485Z,23.11
2018-09-08T13:14:02.485Z,22.90
2018-09-08T13:15:02.510Z,22.99
2018-09-08T13:16:02.490Z,23.08
2018-09-08T13:17:02.481Z,23.01
2018-09-08T13:18:02.489Z,22.64
2018-09-08T13:19:02.490Z,22.35
2018-09-08T13:20:02.499Z,22.37
2018-09-08T13:21:02.499Z,22.41
2018-09-08T13:22:02.498Z,22.59
2018-09-08T13:23:02.501Z,22.49
2018-09-08T13:24:02.519Z,22.59
2018-09-08T13:25:02.498Z,22.65
2018-09-08T13:26:02.502Z,22.68
2018-09-08T13:27:02.516Z,22.71
2018-09-08T13:28:02.506Z,22.77
2018-09-08T13:29:02.530Z,22.67
2018-09-08T13:30:02.506Z,22.62
2018-09-08T13:31:02.507Z,22.65
2018-09-08T13:32:02.507Z,22.82
2018-09-08T13:33:02.501Z,22.87
2018-09-08T13:34:02.509Z,22.96
2018-09-08T13:35:02.571Z,22.97
2018-09-08T13:36:02.513Z,23.04
2018-09-08T13:37:02.512Z,23.02